sensor_id;sensor_type;location;lat;lon;timestamp;pressure;altitude;pressure_sealevel;temperature;humidity
69689;BME280;56932;38.402;-96.176;2022-11-22T00:01:40;98308.67;;;22.32;18.48
69689;BME280;56932;38.402;-96.176;2022-11-22T00:04:05;98311.16;;;21.59;18.91
69689;BME280;56932;38.402;-96.176;2022-11-22T00:06:30;98311.10;;;21.83;18.88
69689;BME280;56932;38.402;-96.176;2022-11-22T00:08:56;98312.70;;;21.80;18.80
69689;BME280;56932;38.402;-96.176;2022-11-22T00:11:22;98313.02;;;21.76;19.11
69689;BME280;56932;38.402;-96.176;2022-11-22T00:13:47;98310.80;;;21.81;19.09
69689;BME280;56932;38.402;-96.176;2022-11-22T00:16:13;98312.09;;;22.44;18.98
69689;BME280;56932;38.402;-96.176;2022-11-22T00:18:38;98314.01;;;21.82;19.67
69689;BME280;56932;38.402;-96.176;2022-11-22T00:21:06;98314.38;;;21.75;19.95
69689;BME280;56932;38.402;-96.176;2022-11-22T00:23:29;98314.86;;;21.21;20.74
69689;BME280;56932;38.402;-96.176;2022-11-22T00:25:55;98311.43;;;22.40;20.30
69689;BME280;56932;38.402;-96.176;2022-11-22T00:28:20;98316.16;;;21.57;21.66
69689;BME280;56932;38.402;-96.176;2022-11-22T00:30:46;98318.05;;;22.35;21.36
69689;BME280;56932;38.402;-96.176;2022-11-22T00:33:11;98317.34;;;21.80;22.36
69689;BME280;56932;38.402;-96.176;2022-11-22T00:35:37;98322.23;;;21.19;23.91
69689;BME280;56932;38.402;-96.176;2022-11-22T00:38:02;98323.28;;;21.57;23.84
69689;BME280;56932;38.402;-96.176;2022-11-22T00:40:28;98324.50;;;22.68;22.70
69689;BME280;56932;38.402;-96.176;2022-11-22T00:42:53;98325.31;;;22.06;23.27
69689;BME280;56932;38.402;-96.176;2022-11-22T00:45:19;98329.42;;;21.79;23.12
69689;BME280;56932;38.402;-96.176;2022-11-22T00:47:44;98334.24;;;22.60;22.58
69689;BME280;56932;38.402;-96.176;2022-11-22T00:50:10;98333.05;;;22.24;22.73
69689;BME280;56932;38.402;-96.176;2022-11-22T00:52:35;98336.57;;;21.77;23.03
69689;BME280;56932;38.402;-96.176;2022-11-22T00:55:01;98335.45;;;21.30;23.49
69689;BME280;56932;38.402;-96.176;2022-11-22T00:57:26;98338.24;;;21.73;23.27
69689;BME280;56932;38.402;-96.176;2022-11-22T00:59:52;98341.94;;;21.89;22.89
69689;BME280;56932;38.402;-96.176;2022-11-22T01:02:18;98341.99;;;21.91;22.71
69689;BME280;56932;38.402;-96.176;2022-11-22T01:04:43;98335.90;;;22.32;22.15
69689;BME280;56932;38.402;-96.176;2022-11-22T01:07:09;98341.35;;;21.79;22.70
69689;BME280;56932;38.402;-96.176;2022-11-22T01:09:34;98344.88;;;21.62;22.60
69689;BME280;56932;38.402;-96.176;2022-11-22T01:11:59;98344.46;;;21.40;22.73
69689;BME280;56932;38.402;-96.176;2022-11-22T01:14:25;98346.39;;;21.59;22.42
69689;BME280;56932;38.402;-96.176;2022-11-22T01:16:51;98348.57;;;21.58;22.25
69689;BME280;56932;38.402;-96.176;2022-11-22T01:19:16;98351.82;;;22.16;21.90
69689;BME280;56932;38.402;-96.176;2022-11-22T01:21:41;98356.57;;;21.95;21.82
69689;BME280;56932;38.402;-96.176;2022-11-22T01:24:07;98359.32;;;22.06;21.52
69689;BME280;56932;38.402;-96.176;2022-11-22T01:26:32;98363.75;;;21.99;21.69
69689;BME280;56932;38.402;-96.176;2022-11-22T01:28:58;98360.04;;;21.13;22.29
69689;BME280;56932;38.402;-96.176;2022-11-22T01:31:23;98361.64;;;21.35;21.81
69689;BME280;56932;38.402;-96.176;2022-11-22T01:33:49;98362.98;;;20.98;22.22
69689;BME280;56932;38.402;-96.176;2022-11-22T01:36:14;98363.09;;;20.92;21.83
69689;BME280;56932;38.402;-96.176;2022-11-22T01:38:40;98362.85;;;21.14;21.75
69689;BME280;56932;38.402;-96.176;2022-11-22T01:41:05;98365.50;;;21.26;21.52
69689;BME280;56932;38.402;-96.176;2022-11-22T01:43:31;98365.48;;;21.14;21.71
69689;BME280;56932;38.402;-96.176;2022-11-22T01:45:57;98366.56;;;22.19;20.58
69689;BME280;56932;38.402;-96.176;2022-11-22T01:48:27;98365.97;;;21.73;21.04
69689;BME280;56932;38.402;-96.176;2022-11-22T01:50:50;98368.80;;;22.04;20.73
69689;BME280;56932;38.402;-96.176;2022-11-22T01:53:16;98367.64;;;21.80;20.90
69689;BME280;56932;38.402;-96.176;2022-11-22T01:55:39;98368.64;;;21.62;20.96
69689;BME280;56932;38.402;-96.176;2022-11-22T01:58:04;98367.83;;;21.94;20.85
69689;BME280;56932;38.402;-96.176;2022-11-22T02:00:29;98366.01;;;21.69;20.84
69689;BME280;56932;38.402;-96.176;2022-11-22T02:02:58;98361.70;;;22.11;20.59
69689;BME280;56932;38.402;-96.176;2022-11-22T02:05:23;98362.76;;;21.76;20.57
69689;BME280;56932;38.402;-96.176;2022-11-22T02:07:49;98362.46;;;21.71;20.52
69689;BME280;56932;38.402;-96.176;2022-11-22T02:10:11;98362.80;;;21.76;20.43
69689;BME280;56932;38.402;-96.176;2022-11-22T02:12:37;98363.02;;;22.32;20.18
69689;BME280;56932;38.402;-96.176;2022-11-22T02:15:03;98362.89;;;21.39;20.83
69689;BME280;56932;38.402;-96.176;2022-11-22T02:17:28;98366.83;;;22.21;20.15
69689;BME280;56932;38.402;-96.176;2022-11-22T02:19:54;98368.26;;;22.40;19.92
69689;BME280;56932;38.402;-96.176;2022-11-22T02:22:27;98366.70;;;22.09;20.14
69689;BME280;56932;38.402;-96.176;2022-11-22T02:24:51;98365.94;;;21.31;20.50
69689;BME280;56932;38.402;-96.176;2022-11-22T02:27:10;98370.87;;;21.39;20.23
69689;BME280;56932;38.402;-96.176;2022-11-22T02:29:36;98371.46;;;21.77;20.22
69689;BME280;56932;38.402;-96.176;2022-11-22T02:32:01;98373.43;;;21.55;20.30
69689;BME280;56932;38.402;-96.176;2022-11-22T02:34:27;98375.54;;;21.47;20.13
69689;BME280;56932;38.402;-96.176;2022-11-22T02:36:53;98380.84;;;21.44;20.31
69689;BME280;56932;38.402;-96.176;2022-11-22T02:39:21;98383.59;;;21.73;20.09
69689;BME280;56932;38.402;-96.176;2022-11-22T02:41:44;98386.02;;;21.41;20.22
69689;BME280;56932;38.402;-96.176;2022-11-22T02:44:10;98385.46;;;21.03;20.27
69689;BME280;56932;38.402;-96.176;2022-11-22T02:46:35;98389.56;;;21.40;20.18
69689;BME280;56932;38.402;-96.176;2022-11-22T02:49:00;98387.70;;;21.11;20.33
69689;BME280;56932;38.402;-96.176;2022-11-22T02:51:26;98387.49;;;20.93;20.44
69689;BME280;56932;38.402;-96.176;2022-11-22T02:53:52;98387.01;;;20.79;20.46
69689;BME280;56932;38.402;-96.176;2022-11-22T02:56:17;98386.82;;;20.50;20.67
69689;BME280;56932;38.402;-96.176;2022-11-22T02:58:43;98388.12;;;20.47;20.60
69689;BME280;56932;38.402;-96.176;2022-11-22T03:01:08;98387.15;;;20.62;20.62
69689;BME280;56932;38.402;-96.176;2022-11-22T03:03:34;98387.39;;;19.73;21.29
69689;BME280;56932;38.402;-96.176;2022-11-22T03:05:59;98386.60;;;20.07;20.83
69689;BME280;56932;38.402;-96.176;2022-11-22T03:08:25;98386.69;;;20.43;20.51
69689;BME280;56932;38.402;-96.176;2022-11-22T03:10:50;98388.97;;;20.75;20.57
69689;BME280;56932;38.402;-96.176;2022-11-22T03:13:16;98391.78;;;19.71;20.95
69689;BME280;56932;38.402;-96.176;2022-11-22T03:15:41;98394.52;;;20.80;20.47
69689;BME280;56932;38.402;-96.176;2022-11-22T03:18:07;98393.07;;;20.20;20.85
69689;BME280;56932;38.402;-96.176;2022-11-22T03:20:33;98389.46;;;20.15;20.71
69689;BME280;56932;38.402;-96.176;2022-11-22T03:23:00;98395.16;;;19.87;20.88
69689;BME280;56932;38.402;-96.176;2022-11-22T03:25:25;98394.36;;;19.99;20.74
69689;BME280;56932;38.402;-96.176;2022-11-22T03:27:49;98395.78;;;20.02;20.70
69689;BME280;56932;38.402;-96.176;2022-11-22T03:30:15;98398.05;;;20.16;20.72
69689;BME280;56932;38.402;-96.176;2022-11-22T03:32:40;98397.84;;;19.98;20.49
69689;BME280;56932;38.402;-96.176;2022-11-22T03:35:07;98400.52;;;20.11;20.71
69689;BME280;56932;38.402;-96.176;2022-11-22T03:37:31;98402.27;;;20.09;20.72
69689;BME280;56932;38.402;-96.176;2022-11-22T03:39:57;98403.22;;;20.21;20.62
69689;BME280;56932;38.402;-96.176;2022-11-22T03:42:22;98404.52;;;19.46;20.76
69689;BME280;56932;38.402;-96.176;2022-11-22T03:44:48;98402.86;;;19.91;20.57
69689;BME280;56932;38.402;-96.176;2022-11-22T03:47:13;98399.32;;;20.31;20.26
69689;BME280;56932;38.402;-96.176;2022-11-22T03:49:39;98405.41;;;20.14;20.51
69689;BME280;56932;38.402;-96.176;2022-11-22T03:52:05;98411.27;;;19.54;20.76
69689;BME280;56932;38.402;-96.176;2022-11-22T03:54:30;98407.12;;;19.96;20.59
69689;BME280;56932;38.402;-96.176;2022-11-22T03:56:56;98408.56;;;20.08;20.47
69689;BME280;56932;38.402;-96.176;2022-11-22T03:59:21;98413.78;;;19.65;20.67
69689;BME280;56932;38.402;-96.176;2022-11-22T04:01:47;98412.61;;;19.94;20.52
69689;BME280;56932;38.402;-96.176;2022-11-22T04:04:12;98414.53;;;19.40;20.57
69689;BME280;56932;38.402;-96.176;2022-11-22T04:06:38;98413.15;;;19.93;20.48
69689;BME280;56932;38.402;-96.176;2022-11-22T04:09:04;98421.30;;;19.65;20.66
69689;BME280;56932;38.402;-96.176;2022-11-22T04:11:29;98418.27;;;19.38;20.88
69689;BME280;56932;38.402;-96.176;2022-11-22T04:13:55;98420.61;;;19.69;20.60
69689;BME280;56932;38.402;-96.176;2022-11-22T04:16:20;98423.47;;;19.55;20.66
69689;BME280;56932;38.402;-96.176;2022-11-22T04:18:46;98423.08;;;19.60;20.59
69689;BME280;56932;38.402;-96.176;2022-11-22T04:21:11;98423.96;;;19.48;20.68
69689;BME280;56932;38.402;-96.176;2022-11-22T04:23:37;98421.43;;;19.59;20.58
69689;BME280;56932;38.402;-96.176;2022-11-22T04:26:02;98424.45;;;19.42;20.70
69689;BME280;56932;38.402;-96.176;2022-11-22T04:28:28;98423.52;;;19.58;20.55
69689;BME280;56932;38.402;-96.176;2022-11-22T04:30:54;98420.43;;;19.39;20.70
69689;BME280;56932;38.402;-96.176;2022-11-22T04:33:19;98422.94;;;19.51;20.58
69689;BME280;56932;38.402;-96.176;2022-11-22T04:35:45;98424.90;;;19.32;20.73
69689;BME280;56932;38.402;-96.176;2022-11-22T04:38:11;98425.23;;;19.34;20.69
69689;BME280;56932;38.402;-96.176;2022-11-22T04:40:36;98424.11;;;19.55;20.50
69689;BME280;56932;38.402;-96.176;2022-11-22T04:43:02;98420.43;;;19.36;20.68
69689;BME280;56932;38.402;-96.176;2022-11-22T04:45:27;98416.85;;;19.12;20.82
69689;BME280;56932;38.402;-96.176;2022-11-22T04:47:52;98419.27;;;19.68;20.59
69689;BME280;56932;38.402;-96.176;2022-11-22T04:50:18;98421.43;;;19.05;20.85
69689;BME280;56932;38.402;-96.176;2022-11-22T04:52:44;98419.55;;;18.94;20.91
69689;BME280;56932;38.402;-96.176;2022-11-22T04:55:09;98418.08;;;19.52;20.65
69689;BME280;56932;38.402;-96.176;2022-11-22T04:57:35;98416.19;;;19.31;20.80
69689;BME280;56932;38.402;-96.176;2022-11-22T05:00:00;98415.51;;;18.98;20.82
69689;BME280;56932;38.402;-96.176;2022-11-22T05:02:26;98418.75;;;18.98;20.83
69689;BME280;56932;38.402;-96.176;2022-11-22T05:04:51;98422.89;;;19.23;20.65
69689;BME280;56932;38.402;-96.176;2022-11-22T05:07:17;98419.89;;;18.99;20.76
69689;BME280;56932;38.402;-96.176;2022-11-22T05:09:42;98416.67;;;19.38;20.62
69689;BME280;56932;38.402;-96.176;2022-11-22T05:12:09;98414.38;;;19.39;20.57
69689;BME280;56932;38.402;-96.176;2022-11-22T05:14:34;98411.77;;;19.06;20.62
69689;BME280;56932;38.402;-96.176;2022-11-22T05:16:59;98413.14;;;18.73;20.91
69689;BME280;56932;38.402;-96.176;2022-11-22T05:19:25;98414.41;;;19.28;20.65
69689;BME280;56932;38.402;-96.176;2022-11-22T05:21:50;98413.58;;;18.83;20.78
69689;BME280;56932;38.402;-96.176;2022-11-22T05:24:16;98411.64;;;19.31;20.58
69689;BME280;56932;38.402;-96.176;2022-11-22T05:26:41;98412.86;;;18.93;20.84
69689;BME280;56932;38.402;-96.176;2022-11-22T05:29:09;98419.07;;;19.08;20.76
69689;BME280;56932;38.402;-96.176;2022-11-22T05:31:35;98423.27;;;18.82;20.70
69689;BME280;56932;38.402;-96.176;2022-11-22T05:33:59;98427.52;;;18.95;20.79
69689;BME280;56932;38.402;-96.176;2022-11-22T05:36:24;98428.53;;;19.13;20.62
69689;BME280;56932;38.402;-96.176;2022-11-22T05:38:49;98423.07;;;18.68;20.71
69689;BME280;56932;38.402;-96.176;2022-11-22T05:41:16;98423.94;;;18.72;20.68
69689;BME280;56932;38.402;-96.176;2022-11-22T05:43:40;98421.49;;;18.97;20.67
69689;BME280;56932;38.402;-96.176;2022-11-22T05:46:08;98417.54;;;18.88;20.74
69689;BME280;56932;38.402;-96.176;2022-11-22T05:48:31;98415.11;;;18.53;20.75
69689;BME280;56932;38.402;-96.176;2022-11-22T05:50:57;98415.21;;;18.85;20.71
69689;BME280;56932;38.402;-96.176;2022-11-22T05:53:22;98416.73;;;19.09;20.50
69689;BME280;56932;38.402;-96.176;2022-11-22T05:55:48;98416.95;;;19.12;20.62
69689;BME280;56932;38.402;-96.176;2022-11-22T05:58:14;98413.12;;;18.71;20.94
69689;BME280;56932;38.402;-96.176;2022-11-22T06:00:39;98409.26;;;17.78;20.86
69689;BME280;56932;38.402;-96.176;2022-11-22T06:03:04;98407.06;;;18.82;20.64
69689;BME280;56932;38.402;-96.176;2022-11-22T06:05:30;98406.00;;;19.06;20.62
69689;BME280;56932;38.402;-96.176;2022-11-22T06:07:57;98404.00;;;18.63;20.74
69689;BME280;56932;38.402;-96.176;2022-11-22T06:10:21;98405.06;;;18.44;20.88
69689;BME280;56932;38.402;-96.176;2022-11-22T06:12:46;98404.24;;;18.83;20.58
69689;BME280;56932;38.402;-96.176;2022-11-22T06:15:12;98399.75;;;18.28;20.78
69689;BME280;56932;38.402;-96.176;2022-11-22T06:17:38;98401.18;;;18.87;20.67
69689;BME280;56932;38.402;-96.176;2022-11-22T06:20:04;98397.63;;;18.68;20.82
69689;BME280;56932;38.402;-96.176;2022-11-22T06:22:29;98396.14;;;18.44;20.80
69689;BME280;56932;38.402;-96.176;2022-11-22T06:24:54;98398.97;;;18.60;20.84
69689;BME280;56932;38.402;-96.176;2022-11-22T06:27:20;98401.33;;;18.94;20.58
69689;BME280;56932;38.402;-96.176;2022-11-22T06:29:45;98401.21;;;18.75;20.69
69689;BME280;56932;38.402;-96.176;2022-11-22T06:32:11;98405.33;;;18.32;20.84
69689;BME280;56932;38.402;-96.176;2022-11-22T06:34:36;98403.00;;;18.18;20.95
69689;BME280;56932;38.402;-96.176;2022-11-22T06:37:02;98403.47;;;18.53;20.84
69689;BME280;56932;38.402;-96.176;2022-11-22T06:39:27;98399.30;;;18.99;20.46
69689;BME280;56932;38.402;-96.176;2022-11-22T06:41:53;98400.09;;;18.73;20.65
69689;BME280;56932;38.402;-96.176;2022-11-22T06:44:19;98398.95;;;18.43;20.67
69689;BME280;56932;38.402;-96.176;2022-11-22T06:46:44;98401.58;;;18.20;20.83
69689;BME280;56932;38.402;-96.176;2022-11-22T06:49:10;98396.15;;;18.53;20.72
69689;BME280;56932;38.402;-96.176;2022-11-22T06:51:35;98391.89;;;18.53;20.70
69689;BME280;56932;38.402;-96.176;2022-11-22T06:54:01;98393.71;;;18.58;20.67
69689;BME280;56932;38.402;-96.176;2022-11-22T06:56:28;98393.52;;;18.52;20.70
69689;BME280;56932;38.402;-96.176;2022-11-22T06:58:52;98387.90;;;18.43;20.76
69689;BME280;56932;38.402;-96.176;2022-11-22T07:01:19;98385.88;;;18.33;20.64
69689;BME280;56932;38.402;-96.176;2022-11-22T07:03:44;98384.62;;;18.36;20.76
69689;BME280;56932;38.402;-96.176;2022-11-22T07:06:10;98380.62;;;18.55;20.62
69689;BME280;56932;38.402;-96.176;2022-11-22T07:08:35;98380.28;;;18.30;20.80
69689;BME280;56932;38.402;-96.176;2022-11-22T07:11:02;98377.69;;;18.36;20.74
69689;BME280;56932;38.402;-96.176;2022-11-22T07:13:26;98377.45;;;18.33;20.78
69689;BME280;56932;38.402;-96.176;2022-11-22T07:15:55;98376.92;;;18.28;20.79
69689;BME280;56932;38.402;-96.176;2022-11-22T07:18:16;98375.59;;;18.28;20.79
69689;BME280;56932;38.402;-96.176;2022-11-22T07:20:42;98372.82;;;18.51;20.61
69689;BME280;56932;38.402;-96.176;2022-11-22T07:23:08;98372.65;;;18.20;20.81
69689;BME280;56932;38.402;-96.176;2022-11-22T07:25:33;98368.13;;;18.23;20.78
69689;BME280;56932;38.402;-96.176;2022-11-22T07:27:59;98366.87;;;18.27;20.74
69689;BME280;56932;38.402;-96.176;2022-11-22T07:30:24;98368.18;;;18.26;20.74
69689;BME280;56932;38.402;-96.176;2022-11-22T07:32:50;98366.33;;;18.07;20.90
69689;BME280;56932;38.402;-96.176;2022-11-22T07:35:16;98363.99;;;17.96;21.02
69689;BME280;56932;38.402;-96.176;2022-11-22T07:37:41;98363.50;;;17.60;21.27
69689;BME280;56932;38.402;-96.176;2022-11-22T07:40:08;98366.11;;;18.51;20.49
69689;BME280;56932;38.402;-96.176;2022-11-22T07:42:32;98365.62;;;18.60;20.35
69689;BME280;56932;38.402;-96.176;2022-11-22T07:44:58;98365.91;;;18.55;20.41
69689;BME280;56932;38.402;-96.176;2022-11-22T07:47:23;98365.94;;;16.91;21.93
69689;BME280;56932;38.402;-96.176;2022-11-22T07:49:49;98365.34;;;17.53;21.52
69689;BME280;56932;38.402;-96.176;2022-11-22T07:52:15;98367.11;;;16.71;22.30
69689;BME280;56932;38.402;-96.176;2022-11-22T07:54:40;98366.02;;;16.95;22.16
69689;BME280;56932;38.402;-96.176;2022-11-22T07:57:06;98365.08;;;16.87;22.29
69689;BME280;56932;38.402;-96.176;2022-11-22T07:59:31;98365.98;;;16.96;22.36
69689;BME280;56932;38.402;-96.176;2022-11-22T08:01:57;98365.74;;;17.33;22.15
69689;BME280;56932;38.402;-96.176;2022-11-22T08:04:22;98364.84;;;17.40;22.15
69689;BME280;56932;38.402;-96.176;2022-11-22T08:06:48;98364.91;;;17.21;22.36
69689;BME280;56932;38.402;-96.176;2022-11-22T08:09:13;98360.26;;;17.53;22.21
69689;BME280;56932;38.402;-96.176;2022-11-22T08:11:39;98357.35;;;17.56;22.34
69689;BME280;56932;38.402;-96.176;2022-11-22T08:14:04;98356.54;;;17.39;22.46
69689;BME280;56932;38.402;-96.176;2022-11-22T08:16:30;98361.23;;;18.02;22.00
69689;BME280;56932;38.402;-96.176;2022-11-22T08:18:56;98360.65;;;17.63;22.37
69689;BME280;56932;38.402;-96.176;2022-11-22T08:21:21;98361.57;;;18.22;21.77
69689;BME280;56932;38.402;-96.176;2022-11-22T08:23:47;98364.00;;;17.96;21.79
69689;BME280;56932;38.402;-96.176;2022-11-22T08:26:15;98366.27;;;18.25;22.00
69689;BME280;56932;38.402;-96.176;2022-11-22T08:28:38;98362.71;;;17.76;22.44
69689;BME280;56932;38.402;-96.176;2022-11-22T08:31:05;98361.62;;;17.75;22.49
69689;BME280;56932;38.402;-96.176;2022-11-22T08:33:29;98366.39;;;18.16;22.19
69689;BME280;56932;38.402;-96.176;2022-11-22T08:35:54;98368.00;;;17.98;22.19
69689;BME280;56932;38.402;-96.176;2022-11-22T08:38:20;98364.38;;;18.03;21.91
69689;BME280;56932;38.402;-96.176;2022-11-22T08:40:45;98367.40;;;18.62;21.29
69689;BME280;56932;38.402;-96.176;2022-11-22T08:43:11;98367.26;;;17.57;22.08
69689;BME280;56932;38.402;-96.176;2022-11-22T08:45:37;98367.97;;;18.38;21.44
69689;BME280;56932;38.402;-96.176;2022-11-22T08:48:02;98365.57;;;19.20;21.00
69689;BME280;56932;38.402;-96.176;2022-11-22T08:50:27;98364.35;;;19.52;20.60
69689;BME280;56932;38.402;-96.176;2022-11-22T08:52:53;98361.18;;;19.41;20.43
69689;BME280;56932;38.402;-96.176;2022-11-22T08:55:19;98356.37;;;20.50;19.60
69689;BME280;56932;38.402;-96.176;2022-11-22T08:57:44;98358.83;;;20.00;19.99
69689;BME280;56932;38.402;-96.176;2022-11-22T09:00:11;98359.17;;;20.01;19.76
69689;BME280;56932;38.402;-96.176;2022-11-22T09:02:35;98363.03;;;18.78;20.85
69689;BME280;56932;38.402;-96.176;2022-11-22T09:05:01;98355.55;;;20.85;19.53
69689;BME280;56932;38.402;-96.176;2022-11-22T09:07:27;98353.18;;;20.64;19.41
69689;BME280;56932;38.402;-96.176;2022-11-22T09:09:52;98349.03;;;19.86;19.75
69689;BME280;56932;38.402;-96.176;2022-11-22T09:12:17;98348.09;;;19.83;20.01
69689;BME280;56932;38.402;-96.176;2022-11-22T09:14:43;98345.61;;;19.93;19.93
69689;BME280;56932;38.402;-96.176;2022-11-22T09:17:09;98343.18;;;19.95;19.90
69689;BME280;56932;38.402;-96.176;2022-11-22T09:19:34;98341.99;;;20.10;20.13
69689;BME280;56932;38.402;-96.176;2022-11-22T09:21:59;98342.02;;;20.62;19.59
69689;BME280;56932;38.402;-96.176;2022-11-22T09:24:25;98343.34;;;20.38;19.56
69689;BME280;56932;38.402;-96.176;2022-11-22T09:26:51;98344.25;;;20.16;19.67
69689;BME280;56932;38.402;-96.176;2022-11-22T09:29:16;98343.54;;;20.37;19.54
69689;BME280;56932;38.402;-96.176;2022-11-22T09:31:42;98343.67;;;20.29;19.72
69689;BME280;56932;38.402;-96.176;2022-11-22T09:34:07;98342.70;;;20.17;19.83
69689;BME280;56932;38.402;-96.176;2022-11-22T09:36:33;98342.87;;;20.19;19.61
69689;BME280;56932;38.402;-96.176;2022-11-22T09:38:58;98344.60;;;20.16;19.91
69689;BME280;56932;38.402;-96.176;2022-11-22T09:43:56;98346.76;;;19.80;19.82
69689;BME280;56932;38.402;-96.176;2022-11-22T09:46:24;98346.21;;;19.96;19.68
69689;BME280;56932;38.402;-96.176;2022-11-22T09:48:51;98347.83;;;19.85;19.74
69689;BME280;56932;38.402;-96.176;2022-11-22T09:51:09;98346.98;;;19.70;19.81
69689;BME280;56932;38.402;-96.176;2022-11-22T09:53:36;98347.98;;;19.69;19.80
69689;BME280;56932;38.402;-96.176;2022-11-22T09:55:59;98346.55;;;20.12;19.79
69689;BME280;56932;38.402;-96.176;2022-11-22T09:58:28;98346.33;;;19.74;19.71
69689;BME280;56932;38.402;-96.176;2022-11-22T10:00:48;98346.34;;;19.60;19.82
69689;BME280;56932;38.402;-96.176;2022-11-22T10:03:21;98349.69;;;19.40;19.95
69689;BME280;56932;38.402;-96.176;2022-11-22T10:05:47;98346.06;;;19.29;20.15
69689;BME280;56932;38.402;-96.176;2022-11-22T10:08:12;98342.07;;;19.53;19.85
69689;BME280;56932;38.402;-96.176;2022-11-22T10:10:37;98340.90;;;19.21;20.19
69689;BME280;56932;38.402;-96.176;2022-11-22T10:13:00;98339.96;;;20.06;19.74
69689;BME280;56932;38.402;-96.176;2022-11-22T10:15:27;98337.72;;;19.63;19.86
69689;BME280;56932;38.402;-96.176;2022-11-22T10:17:52;98334.87;;;19.84;19.88
69689;BME280;56932;38.402;-96.176;2022-11-22T10:20:15;98333.57;;;19.41;19.82
69689;BME280;56932;38.402;-96.176;2022-11-22T10:22:38;98331.70;;;19.86;19.83
69689;BME280;56932;38.402;-96.176;2022-11-22T10:25:14;98330.61;;;19.69;19.75
69689;BME280;56932;38.402;-96.176;2022-11-22T10:27:31;98331.01;;;19.56;19.83
69689;BME280;56932;38.402;-96.176;2022-11-22T10:29:58;98334.05;;;19.79;19.80
69689;BME280;56932;38.402;-96.176;2022-11-22T10:32:26;98331.51;;;19.19;19.91
69689;BME280;56932;38.402;-96.176;2022-11-22T10:35:09;98335.17;;;19.52;19.96
69689;BME280;56932;38.402;-96.176;2022-11-22T10:37:19;98334.30;;;19.34;19.93
69689;BME280;56932;38.402;-96.176;2022-11-22T10:39:50;98334.44;;;19.61;19.71
69689;BME280;56932;38.402;-96.176;2022-11-22T10:42:14;98336.39;;;19.65;19.80
69689;BME280;56932;38.402;-96.176;2022-11-22T10:44:40;98339.20;;;19.16;20.02
69689;BME280;56932;38.402;-96.176;2022-11-22T10:47:00;98339.13;;;19.53;19.88
69689;BME280;56932;38.402;-96.176;2022-11-22T10:49:24;98337.77;;;19.44;19.93
69689;BME280;56932;38.402;-96.176;2022-11-22T10:51:49;98337.65;;;19.27;19.83
69689;BME280;56932;38.402;-96.176;2022-11-22T10:54:15;98337.06;;;19.43;19.84
69689;BME280;56932;38.402;-96.176;2022-11-22T10:56:42;98333.30;;;19.20;19.99
69689;BME280;56932;38.402;-96.176;2022-11-22T11:01:34;98333.18;;;19.52;19.77
69689;BME280;56932;38.402;-96.176;2022-11-22T11:03:56;98329.75;;;19.39;20.01
69689;BME280;56932;38.402;-96.176;2022-11-22T11:06:22;98331.95;;;19.05;19.88
69689;BME280;56932;38.402;-96.176;2022-11-22T11:08:46;98330.62;;;19.03;19.91
69689;BME280;56932;38.402;-96.176;2022-11-22T11:11:11;98331.99;;;19.62;19.80
69689;BME280;56932;38.402;-96.176;2022-11-22T11:13:37;98331.11;;;19.25;19.85
69689;BME280;56932;38.402;-96.176;2022-11-22T11:16:04;98329.89;;;19.85;19.76
69689;BME280;56932;38.402;-96.176;2022-11-22T11:18:31;98329.41;;;18.92;20.07
69689;BME280;56932;38.402;-96.176;2022-11-22T11:20:52;98329.38;;;18.99;20.03
69689;BME280;56932;38.402;-96.176;2022-11-22T11:23:17;98327.36;;;19.04;20.05
69689;BME280;56932;38.402;-96.176;2022-11-22T11:25:44;98325.97;;;19.29;20.05
69689;BME280;56932;38.402;-96.176;2022-11-22T11:28:11;98327.69;;;19.14;20.01
69689;BME280;56932;38.402;-96.176;2022-11-22T11:30:39;98327.34;;;19.28;19.96
69689;BME280;56932;38.402;-96.176;2022-11-22T11:33:00;98326.89;;;19.00;20.20
69689;BME280;56932;38.402;-96.176;2022-11-22T11:35:27;98326.03;;;18.73;20.41
69689;BME280;56932;38.402;-96.176;2022-11-22T11:37:51;98326.31;;;19.05;20.50
69689;BME280;56932;38.402;-96.176;2022-11-22T11:42:41;98329.26;;;18.98;20.94
69689;BME280;56932;38.402;-96.176;2022-11-22T11:47:34;98335.20;;;19.26;21.10
69689;BME280;56932;38.402;-96.176;2022-11-22T11:49:58;98337.39;;;19.20;21.20
69689;BME280;56932;38.402;-96.176;2022-11-22T11:52:24;98336.10;;;19.08;21.20
69689;BME280;56932;38.402;-96.176;2022-11-22T11:54:52;98334.03;;;18.84;21.20
69689;BME280;56932;38.402;-96.176;2022-11-22T11:57:19;98328.14;;;19.19;21.36
69689;BME280;56932;38.402;-96.176;2022-11-22T11:59:44;98330.50;;;19.30;21.26
69689;BME280;56932;38.402;-96.176;2022-11-22T12:02:11;98330.47;;;18.86;21.43
69689;BME280;56932;38.402;-96.176;2022-11-22T12:04:34;98328.05;;;18.86;21.40
69689;BME280;56932;38.402;-96.176;2022-11-22T12:07:02;98326.40;;;18.89;21.56
69689;BME280;56932;38.402;-96.176;2022-11-22T12:09:29;98329.02;;;18.88;21.52
69689;BME280;56932;38.402;-96.176;2022-11-22T12:11:51;98333.12;;;18.72;21.94
69689;BME280;56932;38.402;-96.176;2022-11-22T12:14:14;98334.25;;;18.46;22.33
69689;BME280;56932;38.402;-96.176;2022-11-22T12:16:43;98331.19;;;18.30;22.97
69689;BME280;56932;38.402;-96.176;2022-11-22T12:19:14;98334.33;;;18.78;23.30
69689;BME280;56932;38.402;-96.176;2022-11-22T12:21:37;98338.49;;;18.77;23.40
69689;BME280;56932;38.402;-96.176;2022-11-22T12:24:00;98342.39;;;18.48;23.73
69689;BME280;56932;38.402;-96.176;2022-11-22T12:26:21;98341.27;;;18.69;23.61
69689;BME280;56932;38.402;-96.176;2022-11-22T12:28:47;98343.11;;;18.71;23.74
69689;BME280;56932;38.402;-96.176;2022-11-22T12:31:22;98341.29;;;18.73;23.71
69689;BME280;56932;38.402;-96.176;2022-11-22T12:33:40;98347.36;;;18.48;23.69
69689;BME280;56932;38.402;-96.176;2022-11-22T12:36:09;98349.60;;;18.53;23.86
69689;BME280;56932;38.402;-96.176;2022-11-22T12:38:33;98353.23;;;18.37;23.80
69689;BME280;56932;38.402;-96.176;2022-11-22T12:40:58;98354.04;;;18.60;23.95